Time;durP1;ratioP1;P1;durP2;ratioP2;P2;SDS_P1;SDS_P2;PMS_P1;PMS_P2;Temp;Humidity;BMP_temperature;BMP_pressure;BME280_temperature;BME280_humidity;BME280_pressure;Samples;Min_cycle;Max_cycle;Signal;HPM_P1;HPM_P2
2023/09/26 00:02:24;;;;;;;6.05;3.63;;;11.80;99.90;;;11.43;100.00;97837.34;5010405;28;20481;-39
2023/09/26 00:04:50;;;;;;;5.50;3.47;;;11.80;99.90;;;11.38;100.00;97832.22;5008491;28;20104;-40
2023/09/26 00:07:17;;;;;;;4.35;3.38;;;11.70;99.90;;;11.36;100.00;97835.81;5006151;28;20057;-39
2023/09/26 00:09:43;;;;;;;5.07;3.90;;;11.70;99.90;;;11.31;100.00;97828.06;5013682;28;20034;-40
2023/09/26 00:12:09;;;;;;;4.60;3.72;;;11.70;99.90;;;11.27;100.00;97831.72;5012072;28;20452;-36
2023/09/26 00:14:35;;;;;;;9.23;3.70;;;11.60;99.90;;;11.21;100.00;97829.28;5007962;28;20036;-38
2023/09/26 00:17:00;;;;;;;6.65;3.78;;;11.60;99.90;;;11.15;100.00;97829.50;5006953;28;20151;-37
2023/09/26 00:19:27;;;;;;;7.50;3.80;;;11.50;99.90;;;11.10;100.00;97826.13;5007512;28;20064;-38
2023/09/26 00:21:53;;;;;;;6.32;3.65;;;11.40;99.90;;;11.05;100.00;97835.06;5014028;28;20496;-38
2023/09/26 00:24:19;;;;;;;4.70;3.70;;;11.40;99.90;;;10.97;100.00;97826.50;5014731;28;20073;-38
2023/09/26 00:26:44;;;;;;;5.07;3.10;;;11.30;99.90;;;10.93;100.00;97831.94;5016268;28;20029;-38
2023/09/26 00:29:10;;;;;;;6.18;2.90;;;11.20;99.90;;;10.85;100.00;97825.13;5015055;28;20033;-37
2023/09/26 00:31:36;;;;;;;5.57;3.70;;;11.20;99.90;;;10.80;100.00;97819.16;5009800;28;20079;-38
2023/09/26 00:34:01;;;;;;;4.07;3.50;;;11.10;99.90;;;10.67;100.00;97810.72;5015093;28;20453;-40
2023/09/26 00:36:27;;;;;;;4.22;3.40;;;11.10;99.90;;;10.72;100.00;97825.56;5014324;28;20029;-39
2023/09/26 00:38:53;;;;;;;5.30;3.95;;;11.10;99.90;;;10.66;100.00;97821.34;5016030;28;20029;-38
2023/09/26 00:41:18;;;;;;;5.50;3.80;;;11.00;99.90;;;10.63;100.00;97827.56;5012895;28;20037;-38
2023/09/26 00:43:44;;;;;;;6.15;3.67;;;11.00;99.90;;;10.64;100.00;97828.41;5013238;28;20060;-39
2023/09/26 00:46:11;;;;;;;6.13;4.20;;;11.00;99.90;;;10.52;100.00;97795.38;5013232;28;20045;-38
2023/09/26 00:48:38;;;;;;;8.63;4.88;;;11.00;99.90;;;10.78;100.00;97820.09;5014970;28;20091;-38
2023/09/26 00:51:07;;;;;;;5.28;4.20;;;11.10;99.90;;;10.83;100.00;97818.16;4998178;28;20115;-38
2023/09/26 00:53:35;;;;;;;6.15;4.65;;;11.10;99.90;;;10.88;100.00;97824.16;5010868;28;20025;-37
2023/09/26 00:56:01;;;;;;;7.70;4.30;;;11.20;99.90;;;10.87;100.00;97822.44;5012197;28;20049;-39
2023/09/26 00:58:28;;;;;;;6.72;4.32;;;11.20;99.90;;;10.83;100.00;97818.16;4997678;28;20112;-37
2023/09/26 01:00:54;;;;;;;5.75;4.43;;;11.20;99.90;;;10.80;100.00;97813.88;5011791;28;20033;-38
2023/09/26 01:03:21;;;;;;;6.20;4.70;;;11.10;99.90;;;10.78;100.00;97818.31;5007011;28;20086;-39
2023/09/26 01:05:47;;;;;;;5.53;4.55;;;11.10;99.90;;;10.66;100.00;97802.88;5002246;28;20037;-38
2023/09/26 01:08:13;;;;;;;6.82;4.55;;;11.10;99.90;;;10.74;100.00;97821.09;5008213;28;20740;-39
2023/09/26 01:10:39;;;;;;;7.22;4.40;;;11.10;99.90;;;10.73;100.00;97822.00;4995910;28;20038;-38
2023/09/26 01:13:05;;;;;;;8.25;4.72;;;11.10;99.90;;;10.70;100.00;97822.97;5013183;28;20052;-39
2023/09/26 01:15:36;;;;;;;7.53;4.95;;;11.00;99.90;;;10.68;100.00;97823.00;5012367;28;20497;-39
2023/09/26 01:18:11;;;;;;;8.70;4.50;;;11.00;99.90;;;10.66;100.00;97821.34;5004838;28;20033;-38
2023/09/26 01:20:44;;;;;;;5.88;4.72;;;11.00;99.90;;;10.64;100.00;97816.13;5011357;28;20549;-38
2023/09/26 01:23:12;;;;;;;6.10;4.60;;;11.00;99.90;;;10.62;100.00;97814.41;5012157;28;20034;-39
2023/09/26 01:25:40;;;;;;;5.93;4.47;;;11.00;99.90;;;10.58;100.00;97810.16;5012913;28;20251;-38
2023/09/26 01:28:07;;;;;;;6.50;4.82;;;10.90;99.90;;;10.57;100.00;97822.47;5012299;28;20034;-38
2023/09/26 01:30:40;;;;;;;5.32;4.35;;;10.90;99.90;;;10.53;100.00;97819.97;5007477;28;20441;-40
2023/09/26 01:33:12;;;;;;;5.63;4.47;;;10.90;99.90;;;10.52;100.00;97813.84;5012309;28;20493;-39
2023/09/26 01:35:38;;;;;;;6.68;4.40;;;10.90;99.90;;;10.48;100.00;97820.09;5011523;28;20057;-40
2023/09/26 01:38:04;;;;;;;5.32;4.30;;;10.80;99.90;;;10.46;100.00;97814.91;5012609;28;20156;-40
2023/09/26 01:40:30;;;;;;;6.70;4.00;;;10.80;99.90;;;10.44;100.00;97810.56;5004024;28;20535;-39
2023/09/26 01:42:56;;;;;;;4.18;3.47;;;10.80;99.90;;;10.42;100.00;97813.22;5012263;28;20026;-40
2023/09/26 01:45:23;;;;;;;4.32;3.75;;;10.70;99.90;;;10.41;100.00;97813.28;5011153;28;20898;-39
2023/09/26 01:47:51;;;;;;;6.45;4.32;;;10.80;99.90;;;10.38;100.00;97816.88;5011195;28;20034;-39
2023/09/26 01:50:18;;;;;;;6.20;4.15;;;10.70;99.90;;;10.37;100.00;97820.41;5003745;28;20714;-38
2023/09/26 01:52:45;;;;;;;4.85;4.00;;;10.70;99.90;;;10.34;100.00;97817.88;5012110;28;20105;-39
2023/09/26 01:55:22;;;;;;;5.50;4.13;;;10.70;99.90;;;10.34;100.00;97811.72;5012287;28;20037;-38
2023/09/26 01:57:49;;;;;;;5.45;4.05;;;10.70;99.90;;;10.32;100.00;97809.16;5015305;28;20604;-40
2023/09/26 02:00:15;;;;;;;8.00;4.20;;;10.70;99.90;;;10.31;100.00;97810.91;5009215;28;20069;-39
2023/09/26 02:02:46;;;;;;;5.43;3.95;;;10.70;99.90;;;10.29;100.00;97811.84;5006219;28;20493;-40
2023/09/26 02:05:16;;;;;;;8.90;4.60;;;10.70;99.90;;;10.25;100.00;97797.91;5002866;28;20029;-40
2023/09/26 02:07:46;;;;;;;4.88;4.20;;;10.60;99.90;;;10.24;100.00;97806.69;5011374;28;20057;-38
2023/09/26 02:10:13;;;;;;;8.85;4.65;;;10.60;99.90;;;10.23;100.00;97807.63;5012166;28;20445;-39
2023/09/26 02:12:50;;;;;;;5.78;4.60;;;10.60;99.90;;;10.22;100.00;97799.75;5012135;28;20062;-39
2023/09/26 02:15:16;;;;;;;5.97;4.70;;;10.60;99.90;;;10.14;100.00;97792.09;5004584;28;20083;-39
2023/09/26 02:17:43;;;;;;;7.85;4.90;;;10.50;99.90;;;10.21;100.00;97801.53;5001263;28;20425;-38
2023/09/26 02:20:15;;;;;;;5.90;4.85;;;10.50;99.90;;;10.20;100.00;97799.78;5006033;28;20044;-38
2023/09/26 02:22:42;;;;;;;6.95;5.10;;;10.60;99.90;;;10.22;100.00;97797.13;4978260;28;20030;-39
2023/09/26 02:25:12;;;;;;;6.10;4.72;;;10.60;99.90;;;10.20;100.00;97794.53;5008880;28;20043;-40
2023/09/26 02:27:39;;;;;;;6.63;4.68;;;10.60;99.90;;;10.20;100.00;97791.88;5009775;28;20049;-39
2023/09/26 02:30:08;;;;;;;7.90;5.63;;;10.60;99.90;;;10.20;100.00;97793.66;5009640;28;20197;-39
2023/09/26 02:32:35;;;;;;;6.15;4.90;;;10.60;99.90;;;10.22;100.00;97790.06;4990880;28;20406;-38
2023/09/26 02:35:11;;;;;;;9.38;4.95;;;10.60;99.90;;;10.23;100.00;97794.44;5008555;28;20060;-41
2023/09/26 02:37:38;;;;;;;5.97;4.78;;;10.60;99.90;;;10.25;100.00;97794.41;5003565;28;20052;-38
2023/09/26 02:40:07;;;;;;;6.05;4.70;;;10.60;99.90;;;10.22;100.00;97792.69;5005836;28;20057;-38
2023/09/26 02:42:33;;;;;;;6.43;5.20;;;10.70;99.90;;;10.23;100.00;97783.91;5007453;28;20034;-38
2023/09/26 02:44:59;;;;;;;7.00;5.10;;;10.60;99.90;;;10.22;100.00;97792.69;5009360;28;20095;-38
2023/09/26 02:47:25;;;;;;;7.88;4.82;;;10.60;99.90;;;10.13;100.00;97772.75;4992432;28;20649;-39
2023/09/26 02:49:51;;;;;;;7.40;5.18;;;10.60;99.90;;;10.18;100.00;97779.69;5002216;28;20421;-38
2023/09/26 02:52:17;;;;;;;5.95;5.00;;;10.60;99.90;;;10.06;100.00;97765.06;4999899;28;20021;-38
2023/09/26 02:54:43;;;;;;;7.03;4.60;;;10.50;99.90;;;10.13;100.00;97783.28;5006651;28;20161;-38
2023/09/26 02:57:09;;;;;;;5.20;4.32;;;10.50;99.90;;;10.05;100.00;97769.50;5005632;28;20049;-38
2023/09/26 02:59:35;;;;;;;6.22;4.82;;;10.50;99.90;;;10.08;100.00;97784.34;5008024;28;20261;-38
2023/09/26 03:02:01;;;;;;;6.70;4.68;;;10.50;99.90;;;10.06;100.00;97779.09;5008930;28;20465;-39
2023/09/26 03:04:26;;;;;;;6.88;4.47;;;10.40;99.90;;;10.04;100.00;97785.34;5002886;28;20072;-39
2023/09/26 03:06:52;;;;;;;6.13;4.55;;;10.40;99.90;;;10.02;100.00;97779.25;5001548;28;20037;-37
2023/09/26 03:09:18;;;;;;;5.85;4.47;;;10.40;99.90;;;9.99;100.00;97780.19;5008165;28;20092;-39
2023/09/26 03:11:44;;;;;;;5.82;4.40;;;10.40;99.90;;;9.99;100.00;97788.09;4997509;28;20124;-38
2023/09/26 03:14:10;;;;;;;7.50;4.90;;;10.40;99.90;;;9.97;100.00;97775.88;5005847;28;20026;-39
2023/09/26 03:16:36;;;;;;;5.53;4.35;;;10.30;99.90;;;9.91;100.00;97769.88;5000285;28;20645;-39
2023/09/26 03:19:02;;;;;;;5.68;4.30;;;10.30;99.90;;;9.91;100.00;97775.16;5001990;28;20168;-38
2023/09/26 03:21:27;;;;;;;5.30;4.10;;;10.30;99.90;;;9.89;100.00;97776.97;5003213;28;20037;-38
2023/09/26 03:23:53;;;;;;;7.82;4.80;;;10.20;99.90;;;9.88;100.00;97784.91;5005756;28;20033;-38
2023/09/26 03:26:19;;;;;;;6.13;4.80;;;10.30;99.90;;;9.86;100.00;97778.81;5008211;28;20065;-38
2023/09/26 03:28:45;;;;;;;4.90;4.40;;;10.20;99.90;;;9.85;100.00;97777.97;5004555;28;20468;-39
2023/09/26 03:31:10;;;;;;;6.55;5.00;;;10.20;99.90;;;9.86;100.00;97794.63;5009030;28;20390;-39
2023/09/26 03:33:37;;;;;;;5.38;4.50;;;10.20;99.90;;;9.82;100.00;97777.19;4995013;28;20676;-38
2023/09/26 03:36:03;;;;;;;5.65;3.83;;;10.20;99.90;;;9.79;100.00;97793.06;5007606;28;20037;-38
2023/09/26 03:38:30;;;;;;;4.97;3.95;;;10.20;99.90;;;9.75;100.00;97787.88;5001458;28;20060;-39
2023/09/26 03:41:06;;;;;;;6.32;4.47;;;10.10;99.90;;;9.73;100.00;97780.94;5003810;28;20221;-39
2023/09/26 03:43:32;;;;;;;5.70;4.35;;;10.10;99.90;;;9.73;100.00;97783.56;4998820;28;20530;-39
2023/09/26 03:46:06;;;;;;;7.63;4.97;;;10.10;99.90;;;9.71;100.00;97778.34;5010988;28;20049;-39
2023/09/26 03:48:33;;;;;;;6.68;4.93;;;10.10;99.90;;;9.67;100.00;97776.72;5000643;28;20044;-39
2023/09/26 03:51:13;;;;;;;5.20;4.47;;;10.10;99.90;;;9.66;100.00;97771.47;5003678;28;20244;-38
2023/09/26 03:53:40;;;;;;;6.63;4.47;;;10.10;99.90;;;9.66;100.00;97772.31;4999332;28;20033;-38
2023/09/26 03:56:06;;;;;;;6.28;4.32;;;10.10;99.90;;;9.66;100.00;97776.75;5006580;28;20044;-39
2023/09/26 03:58:33;;;;;;;5.68;4.70;;;10.10;99.90;;;9.60;100.00;97767.25;4996626;28;20033;-38
2023/09/26 04:01:14;;;;;;;5.53;4.65;;;10.00;99.90;;;9.60;100.00;97772.50;5000585;28;20042;-38
2023/09/26 04:03:45;;;;;;;6.00;4.80;;;10.00;99.90;;;9.61;100.00;97783.91;4996193;28;20029;-38
2023/09/26 04:06:11;;;;;;;7.72;4.63;;;10.00;99.90;;;9.59;100.00;97772.53;5002833;28;20033;-38
2023/09/26 04:08:37;;;;;;;5.68;4.03;;;10.00;99.90;;;9.56;100.00;97768.22;4999366;28;20034;-39
2023/09/26 04:11:03;;;;;;;6.85;4.28;;;10.00;99.90;;;9.54;100.00;97776.16;5010018;28;20052;-38
2023/09/26 04:13:28;;;;;;;6.07;4.68;;;9.90;99.90;;;9.52;100.00;97777.09;5003333;28;20026;-38
2023/09/26 04:15:54;;;;;;;4.95;4.10;;;9.90;99.90;;;9.50;100.00;97778.91;5007650;28;20037;-38
2023/09/26 04:18:22;;;;;;;5.57;4.15;;;9.90;99.90;;;9.39;100.00;97759.91;5005369;28;20136;-38
2023/09/26 04:20:49;;;;;;;5.75;4.40;;;9.90;99.90;;;9.48;100.00;97771.06;5007331;28;20124;-38
2023/09/26 04:23:15;;;;;;;8.45;4.22;;;9.90;99.90;;;9.46;100.00;97764.13;4999257;28;20059;-40
2023/09/26 04:25:40;;;;;;;5.10;4.25;;;9.90;99.90;;;9.45;100.00;97765.00;4990989;28;20486;-38
2023/09/26 04:28:06;;;;;;;4.88;4.20;;;9.80;99.90;;;9.27;100.00;97733.00;5007981;28;20041;-38
2023/09/26 04:30:39;;;;;;;6.40;4.80;;;9.80;99.90;;;9.41;100.00;97756.31;5004366;28;20113;-38
2023/09/26 04:33:07;;;;;;;4.50;3.97;;;9.80;99.90;;;9.39;100.00;97760.78;5003864;28;20025;-38
2023/09/26 04:35:33;;;;;;;4.72;4.10;;;9.80;99.90;;;9.39;100.00;97759.91;5005175;28;20025;-38
2023/09/26 04:37:59;;;;;;;5.22;4.20;;;9.80;99.90;;;9.37;100.00;97762.59;5010350;28;20377;-39
2023/09/26 04:40:25;;;;;;;5.40;4.35;;;9.80;99.90;;;9.34;100.00;97762.66;5007774;28;20026;-38
2023/09/26 04:42:51;;;;;;;5.68;4.20;;;9.70;99.90;;;9.34;100.00;97766.16;5009463;28;20128;-38
2023/09/26 04:45:17;;;;;;;5.20;4.32;;;9.80;99.90;;;9.33;100.00;97758.28;5004733;28;20513;-39
2023/09/26 04:47:43;;;;;;;5.38;4.13;;;9.70;99.90;;;9.31;100.00;97760.09;5003519;28;20030;-37
2023/09/26 04:50:09;;;;;;;5.35;4.30;;;9.70;99.90;;;9.29;100.00;97754.88;5004418;28;20430;-38
2023/09/26 04:52:36;;;;;;;5.63;4.63;;;9.70;99.90;;;9.29;100.00;97770.66;5006638;28;20030;-39
2023/09/26 04:55:02;;;;;;;6.38;4.70;;;9.70;99.90;;;9.30;100.00;97758.38;5003658;28;20035;-39
2023/09/26 04:57:28;;;;;;;5.85;5.10;;;9.70;99.90;;;9.30;100.00;97758.38;5008437;28;20558;-36
2023/09/26 04:59:54;;;;;;;5.65;4.93;;;9.70;99.90;;;9.29;100.00;97754.88;5009926;28;20033;-36
2023/09/26 05:02:19;;;;;;;10.57;4.85;;;9.70;99.90;;;9.28;100.00;97752.31;5007024;28;20071;-36
2023/09/26 05:04:48;;;;;;;5.10;4.60;;;9.70;99.90;;;9.25;100.00;97757.63;5012297;28;20196;-36
2023/09/26 05:07:14;;;;;;;8.60;4.70;;;9.70;99.90;;;9.27;100.00;97761.94;5010062;28;20036;-36
2023/09/26 05:09:40;;;;;;;5.55;4.72;;;9.70;99.90;;;9.26;100.00;97757.59;5005809;28;20043;-38
2023/09/26 05:12:06;;;;;;;8.65;5.00;;;9.70;99.90;;;9.26;100.00;97764.59;4995756;28;20477;-38
2023/09/26 05:14:32;;;;;;;5.65;4.70;;;9.70;99.90;;;9.22;100.00;97757.72;5009527;28;20037;-38
2023/09/26 05:16:58;;;;;;;5.75;4.78;;;9.60;99.90;;;9.22;100.00;97762.97;5015913;28;20443;-37
2023/09/26 05:19:24;;;;;;;5.88;4.65;;;9.60;99.90;;;9.21;100.00;97762.13;5013168;28;20030;-38
2023/09/26 05:21:50;;;;;;;5.55;4.38;;;9.60;99.90;;;9.19;100.00;97766.56;5009376;28;20033;-37
2023/09/26 05:24:17;;;;;;;6.97;4.70;;;9.60;99.90;;;9.20;100.00;97767.41;5011829;28;20044;-36
2023/09/26 05:26:43;;;;;;;6.53;4.63;;;9.60;99.90;;;9.17;100.00;97766.59;5011997;28;20040;-36
2023/09/26 05:29:08;;;;;;;5.75;4.20;;;9.60;99.90;;;9.17;100.00;97771.84;5013811;28;20034;-37
2023/09/26 05:31:34;;;;;;;7.72;5.03;;;9.60;99.90;;;9.17;100.00;97774.50;5011581;28;20037;-36
2023/09/26 05:34:00;;;;;;;8.45;4.55;;;9.60;99.90;;;9.22;100.00;97778.75;5018228;28;20022;-37
2023/09/26 05:36:25;;;;;;;5.47;4.50;;;9.60;99.90;;;9.24;100.00;97784.84;5013482;28;20061;-38
2023/09/26 05:38:51;;;;;;;6.70;4.82;;;9.70;99.90;;;9.27;100.00;97779.50;5015281;28;20068;-36
2023/09/26 05:41:17;;;;;;;7.90;4.72;;;9.70;99.90;;;9.28;100.00;97774.22;5014485;28;20029;-38
2023/09/26 05:43:43;;;;;;;7.20;4.88;;;9.70;99.90;;;9.32;100.00;97783.75;5009132;28;20039;-37
2023/09/26 05:46:09;;;;;;;6.50;4.70;;;9.70;99.90;;;9.35;100.00;97773.16;5016634;28;20034;-37
2023/09/26 05:48:36;;;;;;;7.22;5.13;;;9.80;99.90;;;9.40;100.00;97772.16;5015891;28;20114;-37
2023/09/26 05:51:03;;;;;;;8.05;5.60;;;9.80;99.90;;;9.43;100.00;97780.84;5016870;28;20111;-37
2023/09/26 05:53:30;;;;;;;6.07;5.00;;;9.80;99.90;;;9.35;100.00;97756.50;5014324;28;20117;-37
2023/09/26 05:55:56;;;;;;;8.43;5.40;;;9.90;99.90;;;9.43;100.00;97759.78;5018447;28;20029;-37
2023/09/26 05:58:22;;;;;;;6.57;5.15;;;9.90;99.90;;;9.55;100.00;97769.97;5016996;28;20033;-37
2023/09/26 06:00:51;;;;;;;7.22;5.43;;;10.00;99.90;;;9.63;100.00;97779.44;5014341;28;20156;-38
2023/09/26 06:03:16;;;;;;;7.20;5.55;;;10.00;99.90;;;9.67;100.00;97774.06;5017212;28;20115;-37
2023/09/26 06:05:45;;;;;;;6.10;5.50;;;10.10;99.90;;;9.69;100.00;97772.25;5014290;28;20493;-37
2023/09/26 06:08:11;;;;;;;10.30;7.00;;;10.20;99.90;;;9.79;100.00;97775.47;5017004;28;20049;-37
2023/09/26 06:10:37;;;;;;;8.75;7.00;;;10.20;99.90;;;9.86;100.00;97771.78;5014081;28;20033;-38
2023/09/26 06:13:03;;;;;;;8.75;7.05;;;10.30;99.90;;;9.94;100.00;97769.78;5017823;28;20094;-37
2023/09/26 06:15:28;;;;;;;10.52;8.23;;;10.40;99.90;;;10.02;100.00;97771.34;5012823;28;20120;-37
2023/09/26 06:17:59;;;;;;;9.50;7.22;;;10.50;99.90;;;10.08;100.00;97769.38;5018384;28;20106;-37
2023/09/26 06:20:27;;;;;;;10.10;7.00;;;10.60;99.90;;;10.16;100.00;97766.53;5014841;28;20065;-37
2023/09/26 06:22:54;;;;;;;11.07;7.97;;;10.70;99.90;;;10.24;100.00;97776.84;5015234;28;20088;-37
2023/09/26 06:25:22;;;;;;;9.45;7.35;;;10.70;99.90;;;10.32;100.00;97782.81;5016572;28;20486;-38
2023/09/26 06:27:49;;;;;;;10.20;7.40;;;10.80;99.90;;;10.39;100.00;97775.53;5013078;28;20038;-39
2023/09/26 06:30:15;;;;;;;9.15;6.70;;;10.90;99.90;;;10.47;100.00;97776.19;5014969;28;20062;-37
2023/09/26 06:32:41;;;;;;;11.20;7.30;;;10.90;99.90;;;10.53;100.00;97776.00;5015516;28;20040;-38
2023/09/26 06:35:07;;;;;;;11.23;6.85;;;11.00;99.90;;;10.60;100.00;97780.16;5015659;28;20033;-37
2023/09/26 06:37:33;;;;;;;7.10;6.03;;;11.10;99.90;;;10.70;100.00;97789.53;5009590;28;20029;-38
2023/09/26 06:40:03;;;;;;;12.65;6.28;;;11.10;99.90;;;10.79;100.00;97793.66;5016901;28;20025;-37
2023/09/26 06:42:30;;;;;;;8.25;6.32;;;11.20;99.90;;;10.85;100.00;97793.44;5014575;28;20033;-37
2023/09/26 06:44:56;;;;;;;8.95;5.75;;;11.30;99.90;;;10.92;100.00;97788.84;5000307;28;20201;-37
2023/09/26 06:47:21;;;;;;;6.88;5.50;;;11.40;99.90;;;11.02;100.00;97797.34;5011037;28;20400;-37
2023/09/26 06:49:47;;;;;;;7.07;5.20;;;11.50;99.90;;;11.10;100.00;97797.09;5015480;28;20104;-37
2023/09/26 06:52:14;;;;;;;8.73;5.47;;;11.50;99.90;;;11.11;100.00;97783.84;5014507;28;20038;-37
2023/09/26 06:54:40;;;;;;;7.97;5.72;;;11.60;99.90;;;11.26;100.00;97790.38;5012161;28;20035;-37
2023/09/26 06:57:08;;;;;;;6.45;5.30;;;11.70;99.90;;;11.36;100.00;97798.84;5014982;28;20311;-38
2023/09/26 06:59:35;;;;;;;10.05;5.47;;;11.80;99.90;;;11.41;100.00;97800.44;5011615;28;20033;-37
2023/09/26 07:02:00;;;;;;;7.15;5.28;;;11.90;99.90;;;11.51;100.00;97787.78;5010667;28;20038;-37
2023/09/26 07:04:26;;;;;;;7.80;5.78;;;12.00;99.90;;;11.58;100.00;97785.78;5013241;28;20076;-38
2023/09/26 07:06:52;;;;;;;11.90;5.63;;;12.00;99.90;;;11.67;100.00;97789.91;5011174;28;20037;-37
2023/09/26 07:09:17;;;;;;;12.15;6.15;;;12.10;99.90;;;11.74;100.00;97789.63;5014229;28;20238;-38
2023/09/26 07:11:43;;;;;;;9.63;5.80;;;12.20;99.90;;;11.81;100.00;97791.13;5011980;28;20061;-38
2023/09/26 07:14:09;;;;;;;8.38;5.30;;;12.30;99.90;;;11.90;100.00;97789.06;5013474;28;20030;-37
2023/09/26 07:16:35;;;;;;;11.27;6.47;;;12.30;99.90;;;11.95;100.00;97789.78;5010178;28;20045;-37
2023/09/26 07:19:01;;;;;;;8.25;5.50;;;12.40;99.90;;;12.03;100.00;97795.66;5012429;28;20030;-37
2023/09/26 07:21:27;;;;;;;10.60;6.63;;;12.50;99.90;;;12.11;100.00;97782.16;5012189;28;20080;-39
2023/09/26 07:23:53;;;;;;;10.20;6.18;;;12.50;99.90;;;12.20;100.00;97781.81;5011020;28;20046;-38
2023/09/26 07:26:20;;;;;;;9.73;5.10;;;12.60;99.90;;;12.21;100.00;97775.63;5011682;28;20150;-36
2023/09/26 07:28:48;;;;;;;8.73;5.65;;;12.70;99.90;;;12.36;100.00;97790.03;5010044;28;20056;-37
2023/09/26 07:31:18;;;;;;;8.50;5.43;;;12.80;99.90;;;12.40;100.00;97784.59;5012193;28;20316;-36
2023/09/26 07:33:45;;;;;;;9.90;5.85;;;12.90;99.90;;;12.50;100.00;97789.53;4999562;28;20029;-38
2023/09/26 07:36:11;;;;;;;6.55;4.95;;;13.00;99.90;;;12.63;100.00;97790.75;5016171;28;20112;-38
2023/09/26 07:38:37;;;;;;;5.60;4.28;;;13.00;99.90;;;12.70;100.00;97788.75;5014300;28;20047;-38
2023/09/26 07:41:03;;;;;;;7.57;4.57;;;13.10;99.90;;;12.69;100.00;97782.59;5014411;28;20041;-39
2023/09/26 07:43:30;;;;;;;7.43;4.15;;;13.20;99.90;;;12.85;100.00;97789.91;5009028;28;20036;-38
2023/09/26 07:46:09;;;;;;;9.57;4.50;;;13.20;99.90;;;12.92;100.00;97797.56;4999162;28;20048;-39
2023/09/26 07:48:36;;;;;;;7.63;4.43;;;13.30;99.90;;;12.95;100.00;97788.63;5010915;28;20067;-38
2023/09/26 07:51:03;;;;;;;6.68;4.75;;;13.40;99.90;;;13.07;100.00;97793.44;5013417;28;20029;-38
2023/09/26 07:53:28;;;;;;;7.40;5.05;;;13.50;99.90;;;13.17;100.00;97792.13;5011272;28;20504;-38
2023/09/26 07:55:56;;;;;;;8.10;4.18;;;13.60;99.90;;;13.29;100.00;97797.84;5013537;28;20029;-37
2023/09/26 07:58:22;;;;;;;5.60;4.47;;;13.70;99.90;;;13.39;100.00;97795.69;5015159;28;20442;-38
2023/09/26 08:00:48;;;;;;;6.78;4.75;;;13.80;99.90;;;13.35;100.00;97773.75;5013749;28;20041;-38
2023/09/26 08:03:13;;;;;;;7.82;4.45;;;13.90;99.90;;;13.60;100.00;97799.22;4999150;28;20030;-38
2023/09/26 08:05:39;;;;;;;6.03;4.43;;;14.00;99.90;;;13.69;100.00;97796.19;5012345;28;20044;-39
2023/09/26 08:08:05;;;;;;;8.20;3.90;;;14.10;99.90;;;13.76;100.00;97789.69;5004608;28;20041;-38
2023/09/26 08:10:31;;;;;;;6.13;4.65;;;14.20;99.90;;;13.92;100.00;97805.78;5017190;28;20027;-38
2023/09/26 08:12:58;;;;;;;6.57;4.45;;;14.30;99.90;;;14.00;100.00;97792.19;5018399;28;20030;-39
2023/09/26 08:15:27;;;;;;;4.30;3.72;;;14.40;99.90;;;14.17;100.00;97794.09;5016974;28;20026;-38
2023/09/26 08:17:53;;;;;;;3.83;3.38;;;14.50;99.90;;;14.26;100.00;97775.94;5015160;28;20351;-39
2023/09/26 08:20:19;;;;;;;5.60;3.45;;;14.60;99.90;;;14.47;100.00;97791.84;4997395;28;20107;-40
2023/09/26 08:22:44;;;;;;;7.53;4.57;;;14.80;99.90;;;14.62;100.00;97788.47;5009773;28;20508;-38
2023/09/26 08:25:10;;;;;;;6.47;4.55;;;14.90;99.90;;;14.76;100.00;97785.19;5015300;28;20457;-38
2023/09/26 08:27:36;;;;;;;5.90;3.88;;;15.10;99.90;;;14.98;100.00;97803.59;5017848;28;20052;-39
2023/09/26 08:30:02;;;;;;;6.93;3.75;;;15.20;99.90;;;15.12;100.00;97799.41;5017433;28;20038;-41
2023/09/26 08:32:28;;;;;;;5.82;4.28;;;15.40;99.90;;;15.22;100.00;97796.22;5018834;28;20340;-38
2023/09/26 08:34:57;;;;;;;6.55;4.07;;;15.50;99.90;;;15.27;100.00;97788.91;5019380;28;20035;-40
2023/09/26 08:37:23;;;;;;;8.98;3.72;;;15.50;99.90;;;15.43;100.00;97788.09;5015231;28;20025;-38
2023/09/26 08:39:50;;;;;;;7.45;4.65;;;15.70;99.90;;;15.47;100.00;97784.38;5017388;28;20229;-40
2023/09/26 08:42:25;;;;;;;8.65;4.20;;;15.70;99.90;;;15.62;100.00;97794.22;5021019;28;20038;-39
2023/09/26 08:44:51;;;;;;;5.82;3.80;;;15.80;99.90;;;15.73;100.00;97791.00;5020017;28;20647;-38
2023/09/26 08:47:16;;;;;;;5.88;4.40;;;15.90;99.90;;;15.84;100.00;97793.13;5006477;28;20035;-39
2023/09/26 08:49:44;;;;;;;6.75;4.55;;;16.00;99.90;;;16.00;100.00;97786.06;5015778;28;20132;-39
2023/09/26 08:52:10;;;;;;;5.15;3.88;;;16.20;99.90;;;16.10;100.00;97775.81;5019961;28;20037;-40
2023/09/26 08:54:36;;;;;;;7.38;4.55;;;16.30;99.90;;;16.21;100.00;97784.09;5020113;28;20039;-39
2023/09/26 08:57:02;;;;;;;4.40;3.83;;;16.40;99.90;;;16.32;100.00;97788.81;5020943;28;20030;-39
2023/09/26 08:59:31;;;;;;;7.40;4.35;;;16.50;99.90;;;16.41;100.00;97790.13;5003440;28;20033;-39
2023/09/26 09:01:57;;;;;;;6.32;4.03;;;16.60;99.90;;;16.44;100.00;97781.09;5018683;28;20167;-39
2023/09/26 09:04:23;;;;;;;8.18;4.15;;;16.70;99.90;;;16.55;100.00;97784.91;5020428;28;20547;-40
2023/09/26 09:07:02;;;;;;;5.57;4.10;;;16.70;99.90;;;16.67;100.00;97785.16;5016597;28;20222;-41
2023/09/26 09:09:29;;;;;;;9.25;4.45;;;16.80;99.90;;;16.73;100.00;97782.19;5017258;28;20044;-39
2023/09/26 09:11:54;;;;;;;5.72;3.83;;;16.90;99.90;;;16.75;100.00;97791.78;5020863;28;20044;-39
2023/09/26 09:14:35;;;;;;;8.02;3.97;;;16.90;99.90;;;16.76;100.00;97782.88;5011501;28;20033;-41
2023/09/26 09:17:01;;;;;;;8.13;4.28;;;16.90;99.90;;;16.74;100.00;97779.44;5017454;28;20037;-39
2023/09/26 09:19:51;;;;;;;6.88;3.75;;;16.90;99.90;;;16.84;100.00;97781.63;5021704;28;20036;-40
2023/09/26 09:22:21;;;;;;;6.50;3.80;;;17.00;99.90;;;16.90;100.00;97778.59;5010527;28;20379;-40
2023/09/26 09:24:56;;;;;;;4.18;3.33;;;17.10;99.90;;;16.98;100.00;97776.38;5011549;28;20045;-40
2023/09/26 09:27:48;;;;;;;12.20;3.65;;;17.10;99.90;;;17.07;100.00;97780.31;5017957;28;20033;-40
2023/09/26 09:30:16;;;;;;;5.93;4.20;;;17.20;99.90;;;17.09;100.00;97771.28;5012342;28;20160;-39
2023/09/26 09:32:43;;;;;;;5.95;3.05;;;17.30;99.90;;;17.12;100.00;97770.22;5015640;28;20057;-39
2023/09/26 09:35:13;;;;;;;4.82;3.45;;;17.30;99.90;;;17.22;100.00;97774.09;5018652;28;20045;-41
2023/09/26 09:37:49;;;;;;;4.68;3.13;;;17.40;99.90;;;17.20;100.00;97767.16;5018778;28;20029;-39
2023/09/26 09:40:20;;;;;;;7.25;3.88;;;17.40;99.90;;;17.26;100.00;97774.75;5019224;28;20037;-38
2023/09/26 09:42:51;;;;;;;8.95;3.25;;;17.40;99.90;;;17.31;100.00;97772.69;5018051;28;20083;-41
2023/09/26 09:45:18;;;;;;;5.60;2.90;;;17.50;99.90;;;17.39;100.00;97774.91;5013480;28;20110;-40
2023/09/26 09:47:45;;;;;;;5.75;3.92;;;17.50;99.90;;;17.44;100.00;97779.00;5013632;28;20028;-40
2023/09/26 09:50:13;;;;;;;5.80;3.58;;;17.60;99.90;;;17.53;100.00;97774.94;5015383;28;20032;-40
2023/09/26 09:52:48;;;;;;;4.20;3.53;;;17.70;99.90;;;17.60;100.00;97762.97;5017975;28;20022;-40
2023/09/26 09:55:29;;;;;;;3.95;3.22;;;17.70;99.90;;;17.64;100.00;97772.53;5018399;28;20381;-40
2023/09/26 09:57:57;;;;;;;3.97;3.40;;;17.80;99.90;;;17.67;100.00;97769.66;5018305;28;20025;-41
2023/09/26 10:00:25;;;;;;;6.03;3.60;;;17.80;99.90;;;17.73;100.00;97773.78;5017360;28;20033;-40
2023/09/26 10:02:52;;;;;;;7.50;3.80;;;17.90;99.90;;;17.80;100.00;97768.91;5008159;28;20057;-41
2023/09/26 10:05:19;;;;;;;6.97;3.90;;;18.00;99.90;;;17.89;100.00;97763.06;5014109;28;20044;-39
2023/09/26 10:07:47;;;;;;;5.25;3.80;;;18.00;99.90;;;17.96;100.00;97761.72;5018545;28;20045;-39
2023/09/26 10:10:14;;;;;;;5.10;3.00;;;18.10;99.90;;;18.07;100.00;97761.94;5017200;28;20139;-41
2023/09/26 10:12:40;;;;;;;5.13;2.88;;;18.20;99.90;;;18.18;100.00;97758.63;5000191;28;20387;-39
2023/09/26 10:15:13;;;;;;;7.15;3.20;;;18.30;99.90;;;18.29;100.00;97756.13;4993601;28;20042;-39
2023/09/26 10:17:45;;;;;;;5.85;2.70;;;18.40;99.90;;;18.37;100.00;97752.97;5014109;28;20056;-39